sensor_id;sensor_type;location;lat;lon;timestamp;P1;durP1;ratioP1;P2;durP2;ratioP2
27979;SDS011;15315;50.836;4.430;2024-03-23T00:58:36;29.90;;;6.45;;
27979;SDS011;15315;50.836;4.430;2024-03-23T01:08:36;30.42;;;6.15;;
27979;SDS011;15315;50.836;4.430;2024-03-23T01:18:37;26.13;;;6.75;;
27979;SDS011;15315;50.836;4.430;2024-03-23T01:28:37;33.30;;;8.80;;
27979;SDS011;15315;50.836;4.430;2024-03-23T01:38:38;38.20;;;9.02;;
27979;SDS011;15315;50.836;4.430;2024-03-23T01:48:38;33.25;;;8.23;;
27979;SDS011;15315;50.836;4.430;2024-03-23T01:58:38;36.17;;;9.32;;
27979;SDS011;15315;50.836;4.430;2024-03-23T02:08:39;28.33;;;10.32;;
27979;SDS011;15315;50.836;4.430;2024-03-23T02:18:40;29.02;;;11.48;;
27979;SDS011;15315;50.836;4.430;2024-03-23T02:28:40;49.75;;;14.55;;
27979;SDS011;15315;50.836;4.430;2024-03-23T02:38:41;42.50;;;12.32;;
27979;SDS011;15315;50.836;4.430;2024-03-23T02:48:41;38.10;;;12.65;;
27979;SDS011;15315;50.836;4.430;2024-03-23T02:58:44;39.40;;;12.95;;
27979;SDS011;15315;50.836;4.430;2024-03-23T03:08:45;43.78;;;14.02;;
27979;SDS011;15315;50.836;4.430;2024-03-23T03:18:45;51.60;;;13.27;;
27979;SDS011;15315;50.836;4.430;2024-03-23T03:28:47;45.78;;;13.85;;
27979;SDS011;15315;50.836;4.430;2024-03-23T03:38:48;42.33;;;15.13;;
27979;SDS011;15315;50.836;4.430;2024-03-23T03:48:49;48.55;;;15.77;;
27979;SDS011;15315;50.836;4.430;2024-03-23T03:58:49;44.17;;;17.73;;
27979;SDS011;15315;50.836;4.430;2024-03-23T04:08:49;43.05;;;17.80;;
27979;SDS011;15315;50.836;4.430;2024-03-23T04:18:50;42.00;;;16.15;;
27979;SDS011;15315;50.836;4.430;2024-03-23T04:28:50;39.42;;;12.98;;
27979;SDS011;15315;50.836;4.430;2024-03-23T04:38:50;42.30;;;10.82;;
27979;SDS011;15315;50.836;4.430;2024-03-23T04:48:52;23.90;;;9.05;;
27979;SDS011;15315;50.836;4.430;2024-03-23T04:58:53;21.00;;;7.90;;
27979;SDS011;15315;50.836;4.430;2024-03-23T05:08:54;31.13;;;8.18;;
27979;SDS011;15315;50.836;4.430;2024-03-23T05:18:54;29.25;;;8.18;;
27979;SDS011;15315;50.836;4.430;2024-03-23T05:28:55;31.70;;;8.48;;
27979;SDS011;15315;50.836;4.430;2024-03-23T05:38:55;19.50;;;7.20;;
27979;SDS011;15315;50.836;4.430;2024-03-23T05:48:57;26.17;;;7.70;;
27979;SDS011;15315;50.836;4.430;2024-03-23T05:59:02;26.60;;;7.00;;
27979;SDS011;15315;50.836;4.430;2024-03-23T06:09:03;23.42;;;5.95;;
27979;SDS011;15315;50.836;4.430;2024-03-23T06:19:04;26.02;;;4.20;;
27979;SDS011;15315;50.836;4.430;2024-03-23T06:29:06;24.50;;;3.72;;
27979;SDS011;15315;50.836;4.430;2024-03-23T06:39:07;18.13;;;3.20;;
27979;SDS011;15315;50.836;4.430;2024-03-23T06:49:12;18.90;;;2.85;;
27979;SDS011;15315;50.836;4.430;2024-03-23T06:59:12;18.08;;;3.65;;
27979;SDS011;15315;50.836;4.430;2024-03-23T07:09:13;24.60;;;3.78;;
27979;SDS011;15315;50.836;4.430;2024-03-23T07:19:13;20.65;;;3.13;;
27979;SDS011;15315;50.836;4.430;2024-03-23T07:29:16;14.75;;;3.58;;
27979;SDS011;15315;50.836;4.430;2024-03-23T07:39:16;17.77;;;3.70;;
27979;SDS011;15315;50.836;4.430;2024-03-23T07:49:16;26.98;;;4.40;;
27979;SDS011;15315;50.836;4.430;2024-03-23T07:59:18;27.05;;;4.10;;
27979;SDS011;15315;50.836;4.430;2024-03-23T08:09:19;15.00;;;3.65;;
27979;SDS011;15315;50.836;4.430;2024-03-23T08:19:20;18.17;;;3.75;;
27979;SDS011;15315;50.836;4.430;2024-03-23T08:29:20;17.50;;;4.07;;
27979;SDS011;15315;50.836;4.430;2024-03-23T08:39:20;19.83;;;4.00;;
27979;SDS011;15315;50.836;4.430;2024-03-23T08:49:22;14.25;;;3.03;;
27979;SDS011;15315;50.836;4.430;2024-03-23T08:59:22;12.82;;;3.30;;
27979;SDS011;15315;50.836;4.430;2024-03-23T09:09:23;20.17;;;3.58;;
27979;SDS011;15315;50.836;4.430;2024-03-23T09:19:26;18.05;;;2.92;;
27979;SDS011;15315;50.836;4.430;2024-03-23T09:29:28;19.37;;;3.77;;
27979;SDS011;15315;50.836;4.430;2024-03-23T09:39:28;11.60;;;2.30;;
27979;SDS011;15315;50.836;4.430;2024-03-23T09:49:29;11.38;;;2.78;;
27979;SDS011;15315;50.836;4.430;2024-03-23T09:59:29;11.43;;;2.63;;
27979;SDS011;15315;50.836;4.430;2024-03-23T10:09:30;10.40;;;2.40;;
27979;SDS011;15315;50.836;4.430;2024-03-23T10:19:31;14.05;;;2.13;;
27979;SDS011;15315;50.836;4.430;2024-03-23T10:29:31;6.50;;;1.98;;
27979;SDS011;15315;50.836;4.430;2024-03-23T10:39:32;12.50;;;3.38;;
27979;SDS011;15315;50.836;4.430;2024-03-23T10:49:37;8.85;;;2.30;;
27979;SDS011;15315;50.836;4.430;2024-03-23T10:59:37;8.88;;;1.90;;
27979;SDS011;15315;50.836;4.430;2024-03-23T11:09:39;6.93;;;1.95;;
27979;SDS011;15315;50.836;4.430;2024-03-23T11:19:58;14.10;;;2.22;;
27979;SDS011;15315;50.836;4.430;2024-03-23T11:30:10;9.35;;;1.52;;
27979;SDS011;15315;50.836;4.430;2024-03-23T11:40:16;16.85;;;2.30;;
27979;SDS011;15315;50.836;4.430;2024-03-23T11:50:20;9.37;;;1.60;;
27979;SDS011;15315;50.836;4.430;2024-03-23T12:00:21;5.78;;;1.70;;
27979;SDS011;15315;50.836;4.430;2024-03-23T12:10:22;11.50;;;2.70;;
27979;SDS011;15315;50.836;4.430;2024-03-23T12:20:22;7.75;;;1.92;;
27979;SDS011;15315;50.836;4.430;2024-03-23T12:30:22;9.77;;;2.00;;
27979;SDS011;15315;50.836;4.430;2024-03-23T12:40:23;7.97;;;1.77;;
27979;SDS011;15315;50.836;4.430;2024-03-23T12:50:23;11.40;;;2.10;;
27979;SDS011;15315;50.836;4.430;2024-03-23T13:00:24;9.75;;;1.60;;
27979;SDS011;15315;50.836;4.430;2024-03-23T13:10:24;17.13;;;1.40;;
27979;SDS011;15315;50.836;4.430;2024-03-23T13:20:24;9.98;;;1.67;;
27979;SDS011;15315;50.836;4.430;2024-03-23T13:30:25;7.83;;;1.27;;
27979;SDS011;15315;50.836;4.430;2024-03-23T13:40:25;5.90;;;1.10;;
27979;SDS011;15315;50.836;4.430;2024-03-23T13:50:26;5.95;;;1.27;;
27979;SDS011;15315;50.836;4.430;2024-03-23T14:00:26;8.25;;;1.40;;
27979;SDS011;15315;50.836;4.430;2024-03-23T14:10:27;5.43;;;1.10;;
27979;SDS011;15315;50.836;4.430;2024-03-23T14:20:28;16.77;;;1.30;;
27979;SDS011;15315;50.836;4.430;2024-03-23T14:30:28;6.38;;;1.35;;
27979;SDS011;15315;50.836;4.430;2024-03-23T14:40:28;7.75;;;2.00;;
27979;SDS011;15315;50.836;4.430;2024-03-23T14:50:29;8.88;;;1.50;;
27979;SDS011;15315;50.836;4.430;2024-03-23T15:00:29;10.25;;;2.03;;
27979;SDS011;15315;50.836;4.430;2024-03-23T15:10:32;12.75;;;1.92;;
27979;SDS011;15315;50.836;4.430;2024-03-23T15:20:33;10.45;;;1.67;;
27979;SDS011;15315;50.836;4.430;2024-03-23T15:30:35;7.22;;;1.75;;
27979;SDS011;15315;50.836;4.430;2024-03-23T15:40:36;15.80;;;2.20;;
27979;SDS011;15315;50.836;4.430;2024-03-23T15:50:36;7.97;;;1.70;;
27979;SDS011;15315;50.836;4.430;2024-03-23T16:00:37;6.03;;;1.58;;
27979;SDS011;15315;50.836;4.430;2024-03-23T16:10:37;7.45;;;2.25;;
27979;SDS011;15315;50.836;4.430;2024-03-23T16:20:38;8.27;;;1.40;;
27979;SDS011;15315;50.836;4.430;2024-03-23T16:30:38;8.18;;;1.60;;
27979;SDS011;15315;50.836;4.430;2024-03-23T16:40:38;6.68;;;1.30;;
27979;SDS011;15315;50.836;4.430;2024-03-23T16:50:39;12.18;;;1.65;;
27979;SDS011;15315;50.836;4.430;2024-03-23T17:00:39;7.30;;;1.77;;
27979;SDS011;15315;50.836;4.430;2024-03-23T17:10:40;8.45;;;1.73;;
27979;SDS011;15315;50.836;4.430;2024-03-23T17:20:41;8.82;;;1.73;;
27979;SDS011;15315;50.836;4.430;2024-03-23T17:30:44;16.92;;;2.28;;
27979;SDS011;15315;50.836;4.430;2024-03-23T17:40:46;10.98;;;2.38;;
27979;SDS011;15315;50.836;4.430;2024-03-23T17:50:47;9.35;;;1.80;;
27979;SDS011;15315;50.836;4.430;2024-03-23T18:00:48;13.45;;;2.58;;
27979;SDS011;15315;50.836;4.430;2024-03-23T18:10:48;9.73;;;2.22;;
27979;SDS011;15315;50.836;4.430;2024-03-23T18:20:48;9.27;;;2.65;;
27979;SDS011;15315;50.836;4.430;2024-03-23T18:30:56;9.30;;;3.22;;
27979;SDS011;15315;50.836;4.430;2024-03-23T18:40:57;10.20;;;2.83;;
27979;SDS011;15315;50.836;4.430;2024-03-23T18:51:01;7.30;;;3.13;;
27979;SDS011;15315;50.836;4.430;2024-03-23T19:01:03;12.27;;;2.90;;
27979;SDS011;15315;50.836;4.430;2024-03-23T19:11:05;7.80;;;2.40;;
27979;SDS011;15315;50.836;4.430;2024-03-23T19:21:05;12.90;;;2.90;;
27979;SDS011;15315;50.836;4.430;2024-03-23T19:31:06;12.02;;;2.78;;
27979;SDS011;15315;50.836;4.430;2024-03-23T19:41:07;8.93;;;3.20;;
27979;SDS011;15315;50.836;4.430;2024-03-23T19:51:07;13.88;;;3.63;;
27979;SDS011;15315;50.836;4.430;2024-03-23T20:01:16;14.93;;;4.13;;
27979;SDS011;15315;50.836;4.430;2024-03-23T20:11:22;11.43;;;3.47;;
27979;SDS011;15315;50.836;4.430;2024-03-23T20:21:23;9.90;;;3.15;;
27979;SDS011;15315;50.836;4.430;2024-03-23T20:31:24;12.77;;;3.10;;
27979;SDS011;15315;50.836;4.430;2024-03-23T20:41:25;10.15;;;2.58;;
27979;SDS011;15315;50.836;4.430;2024-03-23T20:51:25;10.70;;;2.53;;
27979;SDS011;15315;50.836;4.430;2024-03-23T21:01:25;10.48;;;2.58;;
27979;SDS011;15315;50.836;4.430;2024-03-23T21:11:26;7.90;;;2.63;;
27979;SDS011;15315;50.836;4.430;2024-03-23T21:21:26;8.13;;;2.55;;
27979;SDS011;15315;50.836;4.430;2024-03-23T21:31:27;13.10;;;3.17;;
27979;SDS011;15315;50.836;4.430;2024-03-23T21:41:27;10.27;;;3.15;;
27979;SDS011;15315;50.836;4.430;2024-03-23T21:51:28;13.27;;;3.20;;
27979;SDS011;15315;50.836;4.430;2024-03-23T22:01:28;6.00;;;2.65;;
27979;SDS011;15315;50.836;4.430;2024-03-23T22:11:29;17.50;;;4.50;;
27979;SDS011;15315;50.836;4.430;2024-03-23T22:21:30;9.10;;;3.35;;
27979;SDS011;15315;50.836;4.430;2024-03-23T22:31:31;9.85;;;3.88;;
27979;SDS011;15315;50.836;4.430;2024-03-23T22:41:32;14.13;;;5.00;;
27979;SDS011;15315;50.836;4.430;2024-03-23T22:51:32;12.35;;;4.20;;
27979;SDS011;15315;50.836;4.430;2024-03-23T23:01:33;15.52;;;3.83;;
27979;SDS011;15315;50.836;4.430;2024-03-23T23:11:33;11.82;;;3.83;;
27979;SDS011;15315;50.836;4.430;2024-03-23T23:21:34;20.00;;;4.27;;
27979;SDS011;15315;50.836;4.430;2024-03-23T23:31:35;11.52;;;3.70;;
27979;SDS011;15315;50.836;4.430;2024-03-23T23:41:35;8.15;;;3.22;;
27979;SDS011;15315;50.836;4.430;2024-03-23T23:51:35;10.35;;;3.45;;
